Cartama, Spain
Current Conditions -  °F | °C
As of 2:00 PM on Friday 28 Nov 2014 (Local Time) from LEMG Reporting Station
Broken Clouds Broken Clouds  
Wind Chill: 61°   Ceiling: 4500
Heat Index: 61°   Visibility: 6mi
Dew Point: 57°   Wind: 7mph
Humidity: 88%   Direction: 100°E
Pressure: 29.12"   Gusts: NA
Location:  36.71°N, 4.63°W
Report Text: LEMG 281300Z 10006KT 9999 FEW012 SCT020TCU BKN045 16/14 Q0986 TEMPO 4000 RA
Loading
Personal Weather Stations






























Interactive Weather Map New forecast layout! Learn more

10-Day Weather Forecast

Advertisements
Track Severe Weather on mobile